createdAt,value
2022-08-09T00:00:20.587Z,1.80
2022-08-09T00:06:18.782Z,2.10
2022-08-09T00:11:24.367Z,1.93
2022-08-09T00:16:45.680Z,1.73
2022-08-09T00:22:07.903Z,1.80
2022-08-09T00:27:31.587Z,1.90
2022-08-09T00:32:56.240Z,2.13
2022-08-09T00:38:21.386Z,2.20
2022-08-09T00:44:15.932Z,2.10
2022-08-09T00:49:21.609Z,2.20
2022-08-09T00:54:41.576Z,2.30
2022-08-09T01:00:05.453Z,1.90
2022-08-09T01:05:53.150Z,2.23
2022-08-09T01:11:15.035Z,1.77
2022-08-09T01:16:35.370Z,1.80
2022-08-09T01:21:56.172Z,2.00
2022-08-09T01:27:20.131Z,2.07
2022-08-09T01:32:46.060Z,1.93
2022-08-09T01:38:10.169Z,2.00
2022-08-09T01:43:41.927Z,2.00
2022-08-09T01:49:12.718Z,1.80
2022-08-09T01:54:34.895Z,2.03
2022-08-09T02:00:00.144Z,2.00
2022-08-09T02:05:38.115Z,2.13
2022-08-09T02:11:17.096Z,1.90
2022-08-09T02:16:52.867Z,1.70
2022-08-09T02:22:19.220Z,1.90
2022-08-09T02:28:00.184Z,2.23
2022-08-09T02:33:37.681Z,1.97
2022-08-09T02:38:58.718Z,1.40
2022-08-09T02:44:29.050Z,2.10
2022-08-09T02:50:01.170Z,1.90
2022-08-09T02:55:22.266Z,1.90
2022-08-09T03:00:58.012Z,1.70
2022-08-09T03:06:18.619Z,2.07
2022-08-09T03:12:05.874Z,1.90
2022-08-09T03:17:26.932Z,1.60
2022-08-09T03:22:57.100Z,1.70
2022-08-09T03:28:18.139Z,2.00
2022-08-09T03:33:53.379Z,2.10
2022-08-09T03:39:15.056Z,1.90
2022-08-09T03:44:36.756Z,1.70
2022-08-09T03:49:58.218Z,1.70
2022-08-09T03:55:19.114Z,2.13
2022-08-09T04:00:41.725Z,2.17
2022-08-09T04:06:04.504Z,1.60
2022-08-09T04:11:24.932Z,1.90
2022-08-09T04:16:44.989Z,2.17
2022-08-09T04:22:05.113Z,2.43
2022-08-09T04:27:33.255Z,2.23
2022-08-09T04:32:57.793Z,2.20
2022-08-09T04:38:17.885Z,2.40
2022-08-09T04:43:38.452Z,1.97
2022-08-09T04:49:14.859Z,2.40
2022-08-09T04:54:34.882Z,2.30
2022-08-09T04:59:55.016Z,2.37
2022-08-09T05:05:15.050Z,2.07
2022-08-09T05:10:51.823Z,2.27
2022-08-09T05:16:11.914Z,2.27
2022-08-09T05:21:46.624Z,2.23
2022-08-09T05:27:07.694Z,1.90
2022-08-09T05:32:30.060Z,2.27
2022-08-09T05:37:50.323Z,2.30
2022-08-09T05:43:10.500Z,2.53
2022-08-09T05:48:33.192Z,2.57
2022-08-09T05:53:57.414Z,2.20
2022-08-09T05:59:18.072Z,2.30
2022-08-09T06:04:44.549Z,2.73
2022-08-09T06:10:06.330Z,2.40
2022-08-09T06:15:35.980Z,2.50
2022-08-09T06:20:57.148Z,4.23
2022-08-09T06:26:21.062Z,3.53
2022-08-09T06:32:08.794Z,3.67
2022-08-09T06:37:21.835Z,3.47
2022-08-09T06:42:49.059Z,3.10
2022-08-09T06:48:09.243Z,3.00
2022-08-09T06:53:38.473Z,2.67
2022-08-09T07:00:52.617Z,3.40
2022-08-09T07:04:38.579Z,2.83
2022-08-09T07:10:17.970Z,3.60
2022-08-09T07:16:35.258Z,3.60
2022-08-09T07:21:20.523Z,3.30
2022-08-09T07:26:40.588Z,3.40
2022-08-09T07:32:01.280Z,3.40
2022-08-09T07:37:21.428Z,3.30
2022-08-09T07:42:42.214Z,3.13
2022-08-09T07:48:04.608Z,4.73
2022-08-09T07:53:36.537Z,4.20
2022-08-09T07:59:12.545Z,3.67
2022-08-09T08:04:36.024Z,3.60
2022-08-09T08:10:08.402Z,3.50
2022-08-09T08:15:37.505Z,3.27
2022-08-09T08:20:57.890Z,3.13
2022-08-09T08:26:18.959Z,3.27
2022-08-09T08:32:03.297Z,3.30
2022-08-09T08:37:26.272Z,3.23
2022-08-09T08:43:02.056Z,3.20
2022-08-09T08:48:22.117Z,5.10
2022-08-09T08:54:03.790Z,3.87
2022-08-09T08:59:44.436Z,3.97
2022-08-09T09:05:06.210Z,4.33
2022-08-09T09:10:31.911Z,3.73
2022-08-09T09:15:52.245Z,3.63
2022-08-09T09:21:13.365Z,3.87
2022-08-09T09:26:33.995Z,4.80
2022-08-09T09:32:06.632Z,4.70
2022-08-09T09:37:33.873Z,4.10
2022-08-09T09:42:56.131Z,4.00
2022-08-09T09:48:16.770Z,4.00
2022-08-09T09:53:57.862Z,3.70
2022-08-09T09:59:17.362Z,3.40
2022-08-09T10:04:39.102Z,3.70
2022-08-09T10:09:59.263Z,3.53
2022-08-09T10:15:51.035Z,3.70
2022-08-09T10:21:03.630Z,3.53
2022-08-09T10:26:26.851Z,3.70
2022-08-09T10:37:27.138Z,3.37
2022-08-09T10:42:47.373Z,3.10
2022-08-09T10:48:29.600Z,3.20
2022-08-09T10:53:54.520Z,4.67
2022-08-09T10:59:15.040Z,8.70
2022-08-09T11:04:55.587Z,5.67
2022-08-09T11:10:15.906Z,4.63
2022-08-09T11:15:38.498Z,4.80
2022-08-09T11:21:11.296Z,4.30
2022-08-09T11:26:31.508Z,4.27
2022-08-09T11:31:52.803Z,4.97
2022-08-09T11:37:17.886Z,4.20
2022-08-09T11:42:38.758Z,3.93
2022-08-09T11:48:03.513Z,3.80
2022-08-09T11:54:01.231Z,4.13
2022-08-09T11:59:08.296Z,3.93
2022-08-09T12:04:37.185Z,3.60
2022-08-09T12:09:57.560Z,4.33
2022-08-09T12:15:49.568Z,3.67
2022-08-09T12:21:02.474Z,3.80
2022-08-09T12:26:25.633Z,3.63
2022-08-09T12:31:59.150Z,3.73
2022-08-09T12:37:29.263Z,3.27
2022-08-09T12:42:50.449Z,3.70
2022-08-09T12:48:30.900Z,3.40
2022-08-09T12:53:52.800Z,4.07
2022-08-09T12:59:15.216Z,3.87
2022-08-09T13:04:37.040Z,4.10
2022-08-09T13:10:01.208Z,3.30
2022-08-09T13:15:21.683Z,3.20
2022-08-09T13:21:04.321Z,4.23
2022-08-09T13:26:21.869Z,4.00
2022-08-09T13:32:19.049Z,4.00
2022-08-09T13:37:52.450Z,4.43
2022-08-09T13:43:15.963Z,3.93
2022-08-09T13:48:38.903Z,3.87
2022-08-09T13:54:02.436Z,3.40
2022-08-09T13:59:25.286Z,3.83
2022-08-09T14:04:59.393Z,3.40
2022-08-09T14:10:37.447Z,3.40
2022-08-09T14:16:06.530Z,3.57
2022-08-09T14:21:32.100Z,3.13
2022-08-09T14:26:52.212Z,3.47
2022-08-09T14:32:16.374Z,3.43
2022-08-09T14:38:01.503Z,3.43
2022-08-09T14:43:20.028Z,3.00
2022-08-09T14:48:40.201Z,3.00
2022-08-09T14:54:00.145Z,3.23
2022-08-09T14:59:21.174Z,3.40
2022-08-09T15:04:41.356Z,3.20
2022-08-09T15:10:07.521Z,3.70
2022-08-09T15:15:34.474Z,3.50
2022-08-09T15:21:58.696Z,3.13
2022-08-09T15:26:45.194Z,3.40
2022-08-09T15:32:29.427Z,3.43
2022-08-09T15:37:57.012Z,3.40
2022-08-09T15:43:29.922Z,2.83
2022-08-09T15:49:22.681Z,3.70
2022-08-09T15:54:49.166Z,3.83
2022-08-09T16:00:14.292Z,3.47
2022-08-09T16:05:47.429Z,3.00
2022-08-09T16:11:14.689Z,2.70
2022-08-09T16:16:37.185Z,2.97
2022-08-09T16:21:57.920Z,3.30
2022-08-09T16:27:18.080Z,3.53
2022-08-09T16:32:38.198Z,3.40
2022-08-09T16:38:03.532Z,3.23
2022-08-09T16:43:23.688Z,3.47
2022-08-09T16:48:53.217Z,3.40
2022-08-09T16:54:28.285Z,3.63
2022-08-09T16:59:57.810Z,3.20
2022-08-09T17:05:19.720Z,3.40
2022-08-09T17:10:40.354Z,2.53
2022-08-09T17:16:02.788Z,3.20
2022-08-09T17:21:22.890Z,2.70
2022-08-09T17:26:47.792Z,2.90
2022-08-09T17:32:15.775Z,3.20
2022-08-09T17:38:12.577Z,3.00
2022-08-09T17:43:33.454Z,2.90
2022-08-09T17:48:55.653Z,3.30
2022-08-09T17:54:18.926Z,2.70
2022-08-09T17:59:45.607Z,3.10
2022-08-09T18:05:20.784Z,3.10
2022-08-09T18:10:45.957Z,2.60
2022-08-09T18:16:16.317Z,3.33
2022-08-09T18:21:41.339Z,3.67
2022-08-09T18:27:01.966Z,2.77
2022-08-09T18:32:23.504Z,2.60
2022-08-09T18:37:47.362Z,2.20
2022-08-09T18:43:09.319Z,2.40
2022-08-09T18:48:30.457Z,2.50
2022-08-09T18:54:00.645Z,3.10
2022-08-09T18:59:26.595Z,2.13
2022-08-09T19:05:03.367Z,2.57
2022-08-09T19:10:24.731Z,2.30
2022-08-09T19:15:47.261Z,2.50
2022-08-09T19:21:10.639Z,2.50
2022-08-09T19:26:32.649Z,2.50
2022-08-09T19:31:59.875Z,2.40
2022-08-09T19:37:20.473Z,2.53
2022-08-09T19:42:43.781Z,2.37
2022-08-09T19:48:07.698Z,2.73
2022-08-09T19:53:30.784Z,2.93
2022-08-09T19:59:18.578Z,3.00
2022-08-09T20:04:47.550Z,2.20
2022-08-09T20:10:17.686Z,2.50
2022-08-09T20:16:38.340Z,2.30
2022-08-09T20:21:24.135Z,2.30
2022-08-09T20:27:01.110Z,2.40
2022-08-09T20:32:33.190Z,2.27
2022-08-09T20:38:20.416Z,2.50
2022-08-09T20:43:34.373Z,2.37
2022-08-09T20:48:54.487Z,2.23
2022-08-09T20:54:17.020Z,2.73
2022-08-09T21:00:19.346Z,2.37
2022-08-09T21:05:56.446Z,2.17
2022-08-09T21:10:57.221Z,2.30
2022-08-09T21:16:20.950Z,2.47
2022-08-09T21:21:56.416Z,2.30
2022-08-09T21:27:52.713Z,2.33
2022-08-09T21:32:57.896Z,1.97
2022-08-09T21:38:18.589Z,1.90
2022-08-09T21:43:56.766Z,2.00
2022-08-09T21:49:18.552Z,2.23
2022-08-09T21:54:38.711Z,1.80
2022-08-09T21:59:59.831Z,2.03
2022-08-09T22:05:23.153Z,1.70
2022-08-09T22:11:04.961Z,2.13
2022-08-09T22:16:24.094Z,1.87
2022-08-09T22:21:50.924Z,2.17
2022-08-09T22:27:11.482Z,1.90
2022-08-09T22:32:31.740Z,2.03
2022-08-09T22:38:06.948Z,1.70
2022-08-09T22:44:03.253Z,1.60
2022-08-09T22:49:10.040Z,2.10
2022-08-09T22:54:30.329Z,2.00
2022-08-09T22:59:55.565Z,1.93
2022-08-09T23:05:18.644Z,1.90
2022-08-09T23:10:43.651Z,2.00
2022-08-09T23:16:03.973Z,2.13
2022-08-09T23:21:26.104Z,1.80
2022-08-09T23:26:50.252Z,2.03
2022-08-09T23:32:10.385Z,2.07
2022-08-09T23:37:30.418Z,2.30
2022-08-09T23:42:50.480Z,1.87
2022-08-09T23:48:12.128Z,1.97
2022-08-09T23:53:37.705Z,1.90
2022-08-09T23:58:58.456Z,1.80
